Konya Airport

LTAN · 科尼亚省, 土耳其

罗盘
风向 的 风向 040° Konya Airport 1R/19L
风: 7 kt, 3 beaufort

6 kt

3 kt
改变
0 ft 1.000 2.000 3.000 4.000 5.000
CAVOK
METAR LTAN 012250Z 04007KT CAVOK 06/M00 Q1014 NOSIG RMK RWY19 02005KT 350V050

METAR Konya Airport - LTAN/KYA

Konya Airport是,土耳其中的中型机场。 该机场位于纬度37,97928和经度32,56074。 该机场有2条跑道: 1R/19L 和 1L/19R. 本场的ICAO机场代码为LTAN。 该机场的IATA代码为KYA。 机场在Ankara FIR中。

该航空气象观测是针对Konya Airport在2024年3月2日 01:50, 当地时间进行的。

机场观察

风向为040°,速度为7 kt。

天气为CAVOK。这意味着在5.000 ft或MSA(最低安全高度)以下(以较高者为准)以下没有云。这也意味着没有观测到积雨云或高耸的积云,可见度为10 km 或者更多或更高。此外,不会有雾,降雨或其他重要天气。

温度为6 °C,阵风为2 °C。 海平面上的气压为1014 hPa (QNH)。

白天

今天,太阳从07:20升起,在18:43降落。 这适用于Konya Airport,世界夏令时可能有所不同。 当地时间与世界标准时间之间的时差为+3 小时。 当前,没有夏令时有效。

公司介绍

在这个机场,你可以找到飞行学校。 本场上唯一已知的公司是University of Turkish Aeronautical Association。

体会

到Vliegles.nl去找飞行课程,跳伞和其他飞行体验。 浏览页面,了解Konya Airport附近所有可用的活动。 你也可以使用搜索功能来寻找你所在地附近的特定飞行课程、跳伞或其他飞行体验。

跑道

Id 标题 侧风 逆风 侧风 %
1R/19L 017°-197° 3 kt 6 kt 39 %
1L/19R 017°-197° 3 kt 6 kt 39 %

逆风成分最大的方向会被突出显示,并用于横风计算。 这并不一定意味着这个方向在使用。

温度 & 天气

温度 6 °C
露点 0 °C
相对湿度 66%
风寒 2 °C
Kp-index 0 (0-9)

评论

RWY19 02005KT 350V050

白天

日出
07:20 (4:29)
中午
13:01
日落
18:43

小工具

你想在你的网站上有一个关于Konya Airport的当前航空天气(METAR)的小部件吗?

显示HTML代码
?>